createdAt,value
2017-07-24T00:01:30.927Z,59.63
2017-07-24T00:03:59.026Z,59.07
2017-07-24T00:06:27.273Z,57.80
2017-07-24T00:08:55.779Z,58.60
2017-07-24T00:11:23.934Z,59.83
2017-07-24T00:13:52.406Z,61.73
2017-07-24T00:16:20.550Z,59.60
2017-07-24T00:18:48.650Z,61.13
2017-07-24T00:21:17.498Z,60.93
2017-07-24T00:23:46.378Z,59.77
2017-07-24T00:26:14.535Z,58.97
2017-07-24T00:28:42.757Z,58.93
2017-07-24T00:31:11.445Z,59.33
2017-07-24T00:33:39.569Z,59.97
2017-07-24T00:36:08.226Z,61.73
2017-07-24T00:38:36.729Z,59.30
2017-07-24T00:41:05.358Z,60.23
2017-07-24T00:43:33.614Z,61.40
2017-07-24T00:46:02.238Z,60.67
2017-07-24T00:48:30.325Z,59.70
2017-07-24T00:50:59.834Z,58.07
2017-07-24T00:53:29.065Z,60.20
2017-07-24T01:08:46.573Z,60.37
2017-07-24T01:11:15.074Z,59.60
2017-07-24T01:13:43.714Z,58.10
2017-07-24T01:16:13.194Z,56.03
2017-07-24T01:18:41.702Z,59.07
2017-07-24T01:21:09.844Z,59.80
2017-07-24T01:23:38.563Z,61.97
2017-07-24T01:26:06.690Z,58.10
2017-07-24T01:28:34.814Z,56.30
2017-07-24T01:31:04.350Z,56.27
2017-07-24T01:33:33.142Z,59.57
2017-07-24T01:36:01.870Z,58.77
2017-07-24T01:38:30.089Z,59.97
2017-07-24T01:40:58.191Z,56.87
2017-07-24T01:43:26.322Z,58.07
2017-07-24T01:45:54.635Z,57.57
2017-07-24T01:48:29.578Z,59.70
2017-07-24T01:50:57.701Z,57.83
2017-07-24T01:53:25.814Z,58.17
2017-07-24T01:55:53.970Z,56.80
2017-07-24T01:58:22.270Z,57.93
2017-07-24T02:00:50.403Z,55.40
2017-07-24T02:03:19.821Z,59.33
2017-07-24T02:05:48.139Z,59.57
2017-07-24T02:08:16.714Z,56.80
2017-07-24T02:10:45.454Z,56.57
2017-07-24T02:13:14.265Z,56.17
2017-07-24T02:15:42.359Z,56.13
2017-07-24T02:18:10.461Z,57.40
2017-07-24T02:20:38.702Z,56.53
2017-07-24T02:23:06.806Z,57.47
2017-07-24T02:25:34.906Z,55.87
2017-07-24T02:28:03.129Z,56.57
2017-07-24T02:30:31.242Z,56.40
2017-07-24T02:32:59.374Z,56.33
2017-07-24T02:35:27.781Z,56.03
2017-07-24T02:37:55.898Z,56.00
2017-07-24T02:40:24.010Z,55.87
2017-07-24T02:42:52.237Z,59.93
2017-07-24T02:45:20.332Z,58.00
2017-07-24T02:47:48.478Z,58.47
2017-07-24T02:50:17.097Z,57.77
2017-07-24T02:52:46.525Z,56.93
2017-07-24T02:55:15.013Z,58.20
2017-07-24T02:57:43.757Z,56.67
2017-07-24T03:00:12.426Z,54.43
2017-07-24T03:02:41.191Z,54.73
2017-07-24T03:05:09.798Z,54.90
2017-07-24T03:07:38.401Z,53.40
2017-07-24T03:10:07.074Z,54.77
2017-07-24T03:12:35.697Z,53.03
2017-07-24T03:15:04.306Z,54.97
2017-07-24T03:17:32.826Z,52.13
2017-07-24T03:20:01.449Z,49.67
2017-07-24T03:22:30.980Z,51.90
2017-07-24T03:24:59.515Z,50.93
2017-07-24T03:27:27.742Z,48.17
2017-07-24T03:29:56.346Z,44.40
2017-07-24T03:32:24.801Z,43.60
2017-07-24T03:34:53.062Z,42.47
2017-07-24T03:37:22.658Z,40.63
2017-07-24T03:39:51.896Z,40.90
2017-07-24T03:42:20.695Z,40.80
2017-07-24T03:44:49.351Z,39.80
2017-07-24T03:47:18.099Z,38.60
2017-07-24T03:49:46.622Z,36.00
2017-07-24T03:52:15.182Z,37.20
2017-07-24T03:54:43.858Z,36.83
2017-07-24T03:57:12.479Z,34.43
2017-07-24T03:59:40.886Z,31.40
2017-07-24T04:02:09.360Z,32.83
2017-07-24T04:04:39.030Z,34.70
2017-07-24T04:07:08.275Z,34.57
2017-07-24T04:09:36.353Z,34.00
2017-07-24T04:12:04.546Z,33.73
2017-07-24T04:14:32.608Z,31.77
2017-07-24T04:17:00.678Z,29.57
2017-07-24T04:19:28.902Z,29.77
2017-07-24T04:21:57.005Z,27.57
2017-07-24T04:24:25.108Z,29.27
2017-07-24T04:26:53.326Z,29.40
2017-07-24T04:29:21.423Z,27.50
2017-07-24T04:31:49.511Z,23.57
2017-07-24T04:34:17.734Z,28.87
2017-07-24T04:36:45.794Z,25.33
2017-07-24T04:39:14.610Z,23.17
2017-07-24T04:41:43.483Z,25.77
2017-07-24T04:44:11.993Z,26.60
2017-07-24T04:46:41.529Z,24.30
2017-07-24T04:49:09.746Z,25.60
2017-07-24T04:51:37.862Z,25.73
2017-07-24T04:54:06.322Z,25.63
2017-07-24T04:56:34.574Z,26.20
2017-07-24T04:59:02.654Z,25.30
2017-07-24T05:01:30.761Z,24.67
2017-07-24T05:03:58.985Z,24.73
2017-07-24T05:06:27.059Z,24.98
2017-07-24T05:08:55.130Z,22.25
2017-07-24T05:11:23.371Z,24.50
2017-07-24T05:13:51.486Z,24.12
2017-07-24T05:16:19.591Z,23.85
2017-07-24T05:18:47.794Z,22.00
2017-07-24T05:21:15.925Z,23.15
2017-07-24T05:23:44.054Z,24.23
2017-07-24T05:26:12.854Z,24.55
2017-07-24T05:28:41.598Z,25.12
2017-07-24T05:31:10.161Z,25.12
2017-07-24T05:33:38.393Z,22.30
2017-07-24T05:36:06.860Z,25.30
2017-07-24T05:38:35.380Z,24.15
2017-07-24T05:41:04.135Z,23.65
2017-07-24T09:47:12.034Z,20.52
2017-07-24T09:49:40.128Z,19.25
2017-07-24T09:52:08.117Z,18.97
2017-07-24T09:54:36.305Z,17.90
2017-07-24T09:57:04.375Z,18.67
2017-07-24T09:59:32.366Z,18.13
2017-07-24T10:02:00.533Z,17.60
2017-07-24T10:04:50.087Z,19.73
2017-07-24T10:21:42.650Z,18.08
2017-07-24T10:24:11.236Z,18.67
2017-07-24T10:26:39.374Z,17.83
2017-07-24T10:29:07.616Z,19.80
2017-07-24T10:31:35.706Z,20.58
2017-07-24T10:34:03.772Z,19.40
2017-07-24T10:36:32.056Z,19.55
2017-07-24T10:39:00.126Z,18.55
2017-07-24T10:41:28.178Z,20.17
2017-07-24T10:43:56.352Z,18.63
2017-07-24T10:46:24.387Z,20.10
2017-07-24T10:48:53.455Z,17.90
2017-07-24T10:51:21.654Z,18.02
2017-07-24T10:53:49.714Z,18.40
2017-07-24T10:56:17.770Z,19.80
2017-07-24T10:58:45.965Z,19.17
2017-07-24T11:01:13.997Z,20.93
2017-07-24T11:03:42.043Z,18.25
2017-07-24T11:06:10.210Z,20.35
2017-07-24T11:08:38.202Z,20.57
2017-07-24T11:11:06.239Z,19.30
2017-07-24T11:13:34.531Z,18.97
2017-07-24T11:16:02.568Z,20.77
2017-07-24T11:18:30.593Z,25.40
2017-07-24T11:20:58.737Z,19.77
2017-07-24T11:23:26.816Z,20.33
2017-07-24T11:25:54.841Z,19.70
2017-07-24T11:28:23.012Z,20.80
2017-07-24T11:30:51.036Z,19.67
2017-07-24T11:33:19.068Z,20.57
2017-07-24T11:35:47.257Z,21.00
2017-07-24T11:38:15.268Z,20.17
2017-07-24T11:40:43.302Z,20.23
2017-07-24T11:43:11.584Z,20.53
2017-07-24T11:45:39.645Z,20.03
2017-07-24T11:48:07.732Z,20.30
2017-07-24T11:50:36.064Z,18.60
2017-07-24T11:53:04.150Z,19.83
2017-07-24T11:55:32.138Z,19.03
2017-07-24T11:58:00.316Z,18.50
2017-07-24T12:00:28.383Z,19.73
2017-07-24T12:02:56.448Z,20.10
2017-07-24T12:18:22.565Z,19.63
2017-07-24T12:20:50.672Z,19.97
2017-07-24T12:23:18.747Z,19.63
2017-07-24T12:25:46.908Z,19.67
2017-07-24T12:28:14.978Z,18.50
2017-07-24T12:30:43.178Z,18.83
2017-07-24T12:33:11.366Z,17.30
2017-07-24T12:35:39.386Z,20.93
2017-07-24T12:38:07.413Z,18.70
2017-07-24T12:40:35.642Z,21.10
2017-07-24T12:43:03.714Z,18.57
2017-07-24T12:45:31.741Z,19.50
2017-07-24T12:47:59.944Z,19.87
2017-07-24T12:50:28.019Z,18.00
2017-07-24T12:52:56.248Z,19.73
2017-07-24T12:55:24.433Z,20.10
2017-07-24T12:57:52.472Z,19.60
2017-07-24T13:00:20.516Z,19.60
2017-07-24T13:02:48.688Z,19.10
2017-07-24T13:05:16.738Z,19.57
2017-07-24T13:07:44.734Z,17.57
2017-07-24T13:10:12.893Z,18.90
2017-07-24T13:12:40.921Z,18.43
2017-07-24T13:15:09.000Z,19.80
2017-07-24T13:17:37.193Z,18.63
2017-07-24T13:20:05.282Z,18.20
2017-07-24T13:22:33.384Z,19.27
2017-07-24T13:25:01.613Z,18.40
2017-07-24T13:27:30.490Z,19.63
2017-07-24T13:29:58.569Z,19.37
2017-07-24T13:32:26.735Z,18.83
2017-07-24T13:34:54.817Z,19.97
2017-07-24T13:37:22.889Z,19.23
2017-07-24T13:39:51.040Z,20.43
2017-07-24T13:42:19.061Z,19.23
2017-07-24T13:44:47.132Z,20.87
2017-07-24T13:47:15.292Z,21.93
2017-07-24T13:49:43.371Z,21.30
2017-07-24T13:52:11.458Z,23.67
2017-07-24T13:54:39.706Z,26.40
2017-07-24T13:57:07.776Z,29.40
2017-07-24T13:59:35.852Z,30.37
2017-07-24T14:02:04.074Z,36.20
2017-07-24T14:04:32.147Z,33.37
2017-07-24T14:07:00.184Z,36.57
2017-07-24T14:09:28.306Z,33.50
2017-07-24T14:11:56.335Z,38.60
2017-07-24T14:14:24.362Z,37.20
2017-07-24T14:16:52.523Z,35.83
2017-07-24T14:19:20.549Z,39.47
2017-07-24T14:21:48.613Z,40.40
2017-07-24T14:24:16.796Z,39.63
2017-07-24T14:26:44.876Z,36.50
2017-07-24T14:29:12.938Z,37.60
2017-07-24T14:31:41.209Z,37.93
2017-07-24T14:34:09.218Z,39.07
2017-07-24T14:36:37.256Z,39.20
2017-07-24T14:39:05.645Z,37.63
2017-07-24T14:41:33.712Z,40.77
2017-07-24T14:44:01.754Z,40.20
2017-07-24T14:46:29.952Z,39.70
2017-07-24T14:48:57.973Z,43.10
2017-07-24T14:51:26.065Z,41.87
2017-07-24T14:53:54.247Z,41.47
2017-07-24T14:56:22.436Z,40.60
2017-07-24T14:58:50.568Z,42.37
2017-07-24T15:01:18.732Z,41.97
2017-07-24T15:03:46.818Z,41.80
2017-07-24T15:06:14.900Z,43.77
2017-07-24T15:08:43.105Z,44.00
2017-07-24T15:11:11.223Z,46.27
2017-07-24T15:13:39.264Z,46.50
2017-07-24T15:16:07.482Z,45.20
2017-07-24T15:18:35.510Z,46.47
2017-07-24T15:21:03.537Z,50.20
2017-07-24T15:23:31.709Z,48.20
2017-07-24T15:25:59.730Z,48.47
2017-07-24T15:28:27.798Z,51.33
2017-07-24T15:30:55.992Z,50.47
2017-07-24T15:33:24.041Z,51.10
2017-07-24T15:35:52.124Z,51.23
2017-07-24T15:38:20.309Z,51.10
2017-07-24T15:40:48.376Z,51.67
2017-07-24T15:43:16.420Z,49.93
2017-07-24T15:45:44.610Z,50.73
2017-07-24T15:48:12.648Z,53.00
2017-07-24T15:50:40.748Z,50.40
2017-07-24T15:53:08.916Z,49.67
2017-07-24T15:55:36.964Z,48.13
2017-07-24T15:58:05.166Z,47.33
2017-07-24T16:00:33.338Z,47.17
2017-07-24T16:03:01.403Z,45.57
2017-07-24T16:05:29.459Z,47.97
2017-07-24T16:07:57.613Z,46.77
2017-07-24T16:10:25.644Z,44.70
2017-07-24T16:12:53.764Z,43.67
2017-07-24T16:15:21.951Z,45.63
2017-07-24T16:17:50.044Z,44.70
2017-07-24T16:20:18.096Z,41.80
2017-07-24T16:22:46.291Z,41.73
2017-07-24T16:25:14.354Z,40.53
2017-07-24T16:27:42.384Z,39.77
2017-07-24T16:30:10.547Z,40.37
2017-07-24T16:32:38.610Z,41.93
2017-07-24T16:35:06.716Z,40.67
2017-07-24T16:37:34.944Z,40.50
2017-07-24T16:40:03.030Z,39.80
2017-07-24T16:42:31.140Z,37.67
2017-07-24T16:44:59.312Z,37.03
2017-07-24T16:47:27.340Z,39.13
2017-07-24T16:49:55.354Z,40.37
2017-07-24T16:52:23.541Z,40.27
2017-07-24T16:54:51.573Z,36.17
2017-07-24T16:57:19.652Z,35.83
2017-07-24T16:59:47.909Z,36.27
2017-07-24T17:02:15.996Z,35.03
2017-07-24T17:04:43.995Z,32.20
2017-07-24T17:07:12.250Z,36.10
2017-07-24T17:09:40.310Z,36.03
2017-07-24T17:12:08.337Z,37.57
2017-07-24T17:14:36.518Z,36.40
2017-07-24T17:17:04.582Z,37.73
2017-07-24T17:19:32.635Z,39.60
2017-07-24T17:22:00.786Z,40.23
2017-07-24T17:24:28.904Z,40.23
2017-07-24T17:26:56.953Z,40.50
2017-07-24T17:29:25.089Z,42.70
2017-07-24T17:31:53.141Z,42.30
2017-07-24T17:34:21.161Z,39.57
2017-07-24T17:36:49.343Z,38.97
2017-07-24T17:39:17.400Z,44.00
2017-07-24T17:41:45.472Z,43.93
2017-07-24T17:44:13.688Z,47.30
2017-07-24T17:46:41.753Z,46.60
2017-07-24T17:49:09.850Z,45.10
2017-07-24T17:51:38.000Z,45.77
2017-07-24T17:54:06.080Z,45.07
2017-07-24T17:56:34.143Z,44.13
2017-07-24T17:59:02.383Z,45.40
2017-07-24T18:01:30.599Z,46.00
2017-07-24T18:03:58.711Z,48.10
2017-07-24T18:06:26.898Z,45.27
2017-07-24T18:08:54.961Z,46.93
2017-07-24T18:11:23.039Z,46.00
2017-07-24T18:13:51.292Z,46.80
2017-07-24T18:16:19.332Z,47.70
2017-07-24T18:18:47.440Z,47.03
2017-07-24T18:21:15.652Z,46.60
2017-07-24T18:23:43.755Z,46.53
2017-07-24T18:26:11.862Z,46.10
2017-07-24T18:28:39.988Z,44.10
2017-07-24T18:31:08.060Z,46.10
2017-07-24T18:33:36.128Z,45.87
2017-07-24T18:36:04.325Z,45.97
2017-07-24T18:38:32.342Z,45.60
2017-07-24T18:41:00.412Z,45.83
2017-07-24T18:43:28.579Z,45.33
2017-07-24T18:45:56.648Z,43.33
2017-07-24T18:48:24.743Z,41.70
2017-07-24T18:50:52.972Z,44.90
2017-07-24T18:53:20.998Z,46.33
2017-07-24T18:55:49.062Z,44.20
2017-07-24T18:58:17.177Z,44.90
2017-07-24T19:00:45.174Z,45.93
2017-07-24T19:03:13.358Z,43.07
2017-07-24T19:05:41.515Z,46.57
2017-07-24T19:08:09.579Z,45.97
2017-07-24T19:10:37.633Z,44.20
2017-07-24T19:13:05.815Z,48.67
2017-07-24T19:15:33.840Z,44.80
2017-07-24T19:18:01.898Z,43.00
2017-07-24T19:20:30.096Z,43.57
2017-07-24T19:22:58.151Z,43.73
2017-07-24T19:25:26.201Z,44.03
2017-07-24T19:27:54.397Z,45.97
2017-07-24T19:30:22.439Z,42.47
2017-07-24T19:32:50.550Z,44.57
2017-07-24T19:35:18.756Z,42.97
2017-07-24T19:37:46.790Z,43.80
2017-07-24T19:40:14.848Z,43.80
2017-07-24T19:42:43.052Z,43.40
2017-07-24T19:45:11.089Z,43.80
2017-07-24T19:47:39.082Z,45.40
2017-07-24T19:50:07.217Z,43.40
2017-07-24T19:52:35.299Z,43.70
2017-07-24T19:55:03.321Z,44.63
2017-07-24T19:57:31.516Z,43.70
2017-07-24T19:59:59.600Z,43.07
2017-07-24T20:02:27.619Z,45.27
2017-07-24T20:04:55.968Z,46.60
2017-07-24T20:07:23.966Z,44.70
2017-07-24T20:09:52.013Z,45.90
2017-07-24T20:12:20.190Z,42.07
2017-07-24T20:14:48.289Z,44.27
2017-07-24T20:17:16.347Z,44.87
2017-07-24T20:19:44.561Z,45.60
2017-07-24T20:22:12.595Z,46.70
2017-07-24T20:24:40.594Z,44.57
2017-07-24T20:27:08.771Z,45.77
2017-07-24T20:29:37.182Z,46.23
2017-07-24T20:32:05.238Z,46.87
2017-07-24T20:34:33.443Z,46.23
2017-07-24T20:37:01.475Z,46.53
2017-07-24T20:39:29.568Z,49.20
2017-07-24T20:41:57.730Z,52.00
2017-07-24T20:44:25.808Z,52.20
2017-07-24T20:46:53.880Z,55.10
2017-07-24T20:49:22.062Z,54.10
2017-07-24T20:51:50.069Z,54.03
2017-07-24T20:54:18.088Z,55.60
2017-07-24T20:56:46.262Z,54.60
2017-07-24T20:59:14.303Z,53.30
2017-07-24T21:01:42.344Z,53.30
2017-07-24T21:04:10.516Z,54.07
2017-07-24T21:06:38.744Z,51.43
2017-07-24T21:09:06.844Z,49.70
2017-07-24T21:11:35.012Z,48.80
2017-07-24T21:14:03.100Z,47.13
2017-07-24T21:16:31.204Z,48.23
2017-07-24T21:18:59.423Z,49.60
2017-07-24T21:21:27.507Z,46.83
2017-07-24T21:23:55.529Z,45.87
2017-07-24T21:26:23.727Z,45.00
2017-07-24T21:28:51.810Z,46.80
2017-07-24T21:31:19.864Z,46.03
2017-07-24T21:33:48.075Z,46.30
2017-07-24T21:36:16.246Z,48.97
2017-07-24T21:38:44.319Z,48.37
2017-07-24T21:41:12.489Z,48.00
2017-07-24T21:43:40.560Z,49.63
2017-07-24T21:46:08.585Z,48.60
2017-07-24T21:48:36.714Z,49.93
2017-07-24T21:51:04.752Z,51.20
2017-07-24T21:53:32.832Z,52.50
2017-07-24T21:56:01.013Z,51.97
2017-07-24T21:58:29.036Z,51.20
2017-07-24T22:00:57.106Z,50.70
2017-07-24T22:03:25.320Z,51.00
2017-07-24T22:05:53.346Z,53.27
2017-07-24T22:08:21.621Z,52.10
2017-07-24T22:10:49.823Z,50.60
2017-07-24T22:13:17.878Z,50.53
2017-07-24T22:15:45.875Z,53.03
2017-07-24T22:18:14.046Z,51.03
2017-07-24T22:20:42.115Z,51.10
2017-07-24T22:23:10.142Z,48.00
2017-07-24T22:25:38.281Z,50.30
2017-07-24T22:28:06.436Z,49.40
2017-07-24T22:30:34.514Z,48.73
2017-07-24T22:33:02.694Z,50.57
2017-07-24T22:35:30.907Z,51.63
2017-07-24T22:37:59.004Z,50.33
2017-07-24T22:40:27.186Z,50.63
2017-07-24T22:42:55.214Z,46.83
2017-07-24T22:45:23.369Z,48.93
2017-07-24T22:47:51.564Z,46.10
2017-07-24T22:50:19.578Z,45.30
2017-07-24T22:52:47.644Z,47.20
2017-07-24T22:55:15.831Z,48.80
2017-07-24T22:57:43.893Z,52.50
2017-07-24T23:00:11.905Z,51.57
2017-07-24T23:02:40.099Z,52.90
2017-07-24T23:05:08.190Z,54.00
2017-07-24T23:07:36.268Z,56.00
2017-07-24T23:10:04.583Z,53.83
2017-07-24T23:12:32.600Z,53.23
2017-07-24T23:15:00.629Z,54.67
2017-07-24T23:17:28.818Z,54.53
2017-07-24T23:19:56.847Z,55.90
2017-07-24T23:22:24.931Z,55.00
2017-07-24T23:24:53.118Z,56.93
2017-07-24T23:27:21.157Z,56.00
2017-07-24T23:29:49.216Z,56.53
2017-07-24T23:32:17.438Z,56.40
2017-07-24T23:34:45.459Z,58.90
2017-07-24T23:37:13.471Z,59.37
2017-07-24T23:39:41.644Z,62.13
2017-07-24T23:42:09.730Z,62.50
2017-07-24T23:44:37.774Z,61.93
2017-07-24T23:47:05.968Z,60.70
2017-07-24T23:49:33.995Z,62.10
2017-07-24T23:52:02.027Z,63.17
2017-07-24T23:54:30.171Z,64.07
2017-07-24T23:56:58.198Z,61.93
2017-07-24T23:59:26.226Z,64.43
